La Villa Garden, Puerto Rico
Current Conditions -  °F | °C
As of 12:56 PM on Saturday 22 Nov 2014 (Local Time) from TJSJ Reporting Station
Overcast Overcast  
Wind Chill: 82°   Ceiling: 4000
Heat Index: 91°   Visibility: 10mi
Dew Point: 78°   Wind: 8mph
Humidity: 88%   Direction: 80°E
Pressure: 30"   Gusts: NA
Location:  18.3885°N, 66.115°W
Report Text: TJSJ 221656Z 08007KT 10SM SCT022 BKN040 OVC080 28/26 A3000 RMK AO2 RAE00 SLP157 P0000 T02780256
Loading
Personal Weather Stations






























Interactive Weather Map New forecast layout! Learn more

10-Day Weather Forecast

Advertisements
Track Severe Weather on mobile